createdAt,value
2018-02-12T00:00:42.552Z,2.20
2018-02-12T00:03:09.442Z,2.20
2018-02-12T00:05:36.363Z,2.20
2018-02-12T00:08:03.284Z,2.20
2018-02-12T00:10:30.199Z,2.20
2018-02-12T00:12:57.130Z,2.10
2018-02-12T00:15:24.408Z,2.20
2018-02-12T00:17:51.343Z,2.20
2018-02-12T00:20:18.250Z,2.20
2018-02-12T00:22:45.952Z,2.30
2018-02-12T00:25:12.859Z,2.20
2018-02-12T00:27:40.599Z,2.20
2018-02-12T00:30:07.481Z,2.00
2018-02-12T00:32:34.440Z,2.20
2018-02-12T00:35:01.390Z,2.10
2018-02-12T00:37:28.341Z,2.20
2018-02-12T00:39:55.263Z,2.20
2018-02-12T00:42:22.195Z,2.20
2018-02-12T00:44:49.118Z,2.10
2018-02-12T00:47:16.804Z,2.20
2018-02-12T00:49:44.663Z,2.30
2018-02-12T00:52:12.350Z,2.10
2018-02-12T00:54:39.251Z,2.20
2018-02-12T00:57:06.171Z,2.20
2018-02-12T00:59:33.080Z,2.00
2018-02-12T01:02:00.381Z,2.00
2018-02-12T01:04:28.138Z,2.00
2018-02-12T01:06:55.088Z,2.00
2018-02-12T01:09:22.005Z,2.00
2018-02-12T01:11:48.952Z,2.00
2018-02-12T01:14:15.855Z,1.90
2018-02-12T01:16:42.799Z,1.90
2018-02-12T01:19:09.715Z,1.90
2018-02-12T01:21:36.636Z,1.90
2018-02-12T01:24:04.315Z,1.80
2018-02-12T01:26:31.272Z,1.70
2018-02-12T01:31:32.472Z,1.70
2018-02-12T01:34:02.427Z,1.70
2018-02-12T01:36:30.248Z,1.70
2018-02-12T01:38:57.201Z,1.70
2018-02-12T01:41:26.771Z,1.80
2018-02-12T01:43:59.357Z,1.80
2018-02-12T01:46:28.750Z,1.70
2018-02-12T01:48:58.404Z,1.80
2018-02-12T01:51:26.925Z,1.80
2018-02-12T01:53:53.831Z,1.70
2018-02-12T01:56:20.753Z,1.70
2018-02-12T01:58:48.428Z,1.70
2018-02-12T02:01:15.346Z,1.90
2018-02-12T02:03:43.028Z,1.70
2018-02-12T02:06:09.950Z,1.70
2018-02-12T02:08:36.870Z,1.70
2018-02-12T02:11:03.796Z,1.70
2018-02-12T02:13:30.722Z,1.60
2018-02-12T02:15:57.663Z,1.70
2018-02-12T02:18:24.589Z,1.70
2018-02-12T02:20:51.495Z,1.50
2018-02-12T02:23:18.460Z,1.70
2018-02-12T02:25:46.143Z,1.60
2018-02-12T02:28:13.065Z,1.70
2018-02-12T02:30:40.756Z,1.60
2018-02-12T02:33:07.669Z,1.70
2018-02-12T02:35:35.355Z,1.60
2018-02-12T02:38:02.280Z,1.50
2018-02-12T02:40:29.210Z,1.60
2018-02-12T02:42:56.151Z,1.70
2018-02-12T02:45:23.062Z,1.70
2018-02-12T02:47:49.983Z,1.70
2018-02-12T02:50:16.903Z,1.70
2018-02-12T02:52:44.582Z,1.70
2018-02-12T02:55:11.520Z,1.70
2018-02-12T02:57:38.452Z,1.70
2018-02-12T03:00:06.129Z,1.70
2018-02-12T03:02:33.044Z,1.60
2018-02-12T03:05:00.227Z,1.70
2018-02-12T03:07:27.165Z,1.60
2018-02-12T03:09:54.096Z,1.60
2018-02-12T03:12:21.778Z,1.70
2018-02-12T03:14:48.691Z,1.70
2018-02-12T03:17:16.397Z,1.80
2018-02-12T03:19:43.313Z,2.00
2018-02-12T03:22:10.977Z,1.80
2018-02-12T03:24:38.653Z,1.80
2018-02-12T03:27:05.565Z,1.80
2018-02-12T03:29:32.482Z,1.80
2018-02-12T03:31:59.387Z,1.90
2018-02-12T03:34:26.348Z,1.80
2018-02-12T03:36:53.251Z,1.90
2018-02-12T03:39:20.171Z,1.90
2018-02-12T03:41:47.084Z,1.90
2018-02-12T03:44:14.027Z,1.90
2018-02-12T03:46:40.970Z,2.00
2018-02-12T03:49:07.891Z,2.00
2018-02-12T03:51:34.795Z,2.00
2018-02-12T03:54:01.711Z,2.00
2018-02-12T03:56:28.618Z,1.90
2018-02-12T03:58:55.548Z,1.90
2018-02-12T04:01:23.221Z,1.80
2018-02-12T04:03:50.912Z,1.90
2018-02-12T04:06:17.821Z,2.00
2018-02-12T04:08:44.753Z,1.90
2018-02-12T04:11:11.704Z,1.90
2018-02-12T04:13:39.407Z,1.90
2018-02-12T04:16:06.313Z,2.00
2018-02-12T04:18:34.006Z,1.90
2018-02-12T04:21:00.916Z,2.00
2018-02-12T04:23:27.847Z,1.90
2018-02-12T04:25:54.762Z,1.90
2018-02-12T04:28:21.670Z,1.90
2018-02-12T04:30:48.686Z,1.90
2018-02-12T04:33:15.608Z,1.80
2018-02-12T04:35:42.556Z,1.80
2018-02-12T04:38:09.500Z,1.90
2018-02-12T04:40:36.417Z,1.70
2018-02-12T04:43:03.388Z,1.80
2018-02-12T04:45:30.295Z,1.70
2018-02-12T04:47:57.207Z,1.70
2018-02-12T04:50:24.896Z,1.70
2018-02-12T04:52:51.787Z,1.60
2018-02-12T04:55:18.695Z,1.70
2018-02-12T04:57:45.600Z,1.70
2018-02-12T05:00:13.289Z,1.80
2018-02-12T05:02:40.195Z,1.90
2018-02-12T05:05:07.883Z,1.70
2018-02-12T05:07:34.786Z,1.70
2018-02-12T05:10:01.872Z,1.80
2018-02-12T05:12:28.812Z,1.80
2018-02-12T05:14:56.509Z,1.90
2018-02-12T05:17:23.419Z,2.10
2018-02-12T05:19:51.108Z,1.90
2018-02-12T05:22:18.009Z,2.00
2018-02-12T05:24:45.691Z,1.90
2018-02-12T05:27:12.607Z,2.00
2018-02-12T05:29:39.519Z,1.90
2018-02-12T05:32:06.420Z,1.80
2018-02-12T05:34:34.131Z,1.90
2018-02-12T05:37:01.095Z,2.10
2018-02-12T05:39:28.020Z,1.80
2018-02-12T05:41:54.943Z,1.80
2018-02-12T05:44:21.879Z,1.90
2018-02-12T05:46:48.779Z,1.90
2018-02-12T05:49:16.440Z,1.80
2018-02-12T05:51:44.129Z,1.70
2018-02-12T05:54:11.044Z,1.90
2018-02-12T05:56:37.968Z,1.90
2018-02-12T05:59:04.887Z,2.00
2018-02-12T06:01:31.808Z,2.00
2018-02-12T06:03:58.720Z,2.00
2018-02-12T06:06:25.715Z,2.00
2018-02-12T06:08:52.616Z,2.00
2018-02-12T06:11:20.313Z,1.90
2018-02-12T06:13:47.240Z,2.00
2018-02-12T06:16:14.928Z,1.90
2018-02-12T06:18:41.832Z,2.10
2018-02-12T06:21:08.793Z,1.90
2018-02-12T06:23:35.770Z,2.00
2018-02-12T06:26:02.688Z,2.00
2018-02-12T06:28:29.600Z,2.00
2018-02-12T06:30:56.561Z,2.00
2018-02-12T06:33:23.468Z,2.00
2018-02-12T06:35:50.388Z,2.00
2018-02-12T06:38:17.304Z,2.00
2018-02-12T06:40:44.228Z,2.00
2018-02-12T06:43:11.128Z,2.00
2018-02-12T06:45:38.057Z,2.00
2018-02-12T06:48:04.964Z,2.00
2018-02-12T06:50:31.886Z,2.00
2018-02-12T06:52:58.796Z,1.90
2018-02-12T06:55:25.717Z,1.90
2018-02-12T06:57:52.628Z,1.80
2018-02-12T07:00:19.552Z,1.70
2018-02-12T07:02:46.461Z,1.70
2018-02-12T07:05:14.224Z,1.70
2018-02-12T07:07:41.149Z,1.70
2018-02-12T07:10:08.908Z,1.80
2018-02-12T07:12:36.636Z,1.80
2018-02-12T07:15:03.628Z,2.00
2018-02-12T07:17:31.289Z,1.70
2018-02-12T07:19:58.972Z,1.70
2018-02-12T07:22:25.878Z,1.90
2018-02-12T07:24:53.576Z,1.60
2018-02-12T07:27:20.539Z,1.60
2018-02-12T07:29:47.430Z,1.60
2018-02-12T07:32:15.102Z,1.60
2018-02-12T07:34:42.783Z,1.70
2018-02-12T07:37:09.688Z,1.60
2018-02-12T07:39:36.624Z,1.70
2018-02-12T07:42:04.297Z,1.70
2018-02-12T07:44:31.207Z,1.80
2018-02-12T07:46:58.134Z,1.80
2018-02-12T07:49:25.047Z,1.80
2018-02-12T07:51:51.972Z,1.80
2018-02-12T07:54:18.872Z,1.80
2018-02-12T07:56:45.813Z,1.70
2018-02-12T07:59:12.715Z,1.70
2018-02-12T08:01:40.399Z,1.70
2018-02-12T08:04:07.308Z,1.70
2018-02-12T08:06:34.236Z,1.90
2018-02-12T08:09:01.136Z,1.80
2018-02-12T08:11:28.063Z,1.70
2018-02-12T08:13:54.965Z,1.80
2018-02-12T08:16:21.899Z,1.90
2018-02-12T08:18:48.808Z,1.90
2018-02-12T08:21:15.802Z,1.80
2018-02-12T08:23:42.740Z,1.80
2018-02-12T08:26:09.668Z,1.80
2018-02-12T08:28:36.580Z,1.80
2018-02-12T08:31:03.504Z,1.80
2018-02-12T08:33:31.178Z,1.80
2018-02-12T08:35:58.101Z,2.10
2018-02-12T08:38:25.000Z,1.50
2018-02-12T08:40:51.920Z,1.20
2018-02-12T08:43:19.592Z,0.80
2018-02-12T08:45:46.516Z,0.60
2018-02-12T08:48:13.423Z,0.80
2018-02-12T08:50:40.340Z,0.90
2018-02-12T08:53:07.269Z,0.90
2018-02-12T08:55:34.940Z,1.10
2018-02-12T08:58:01.861Z,1.20
2018-02-12T09:00:29.576Z,1.00
2018-02-12T09:02:56.486Z,1.00
2018-02-12T09:05:23.397Z,1.00
2018-02-12T09:07:50.312Z,1.00
2018-02-12T09:10:17.216Z,1.00
2018-02-12T09:12:44.163Z,1.00
2018-02-12T09:15:11.070Z,1.10
2018-02-12T09:17:38.433Z,1.10
2018-02-12T09:20:05.332Z,1.10
2018-02-12T09:22:32.321Z,1.10
2018-02-12T09:24:59.205Z,1.10
2018-02-12T09:27:26.136Z,1.10
2018-02-12T09:29:53.046Z,1.20
2018-02-12T09:32:19.975Z,1.20
2018-02-12T09:34:46.885Z,1.20
2018-02-12T09:37:13.804Z,1.10
2018-02-12T09:39:41.472Z,1.00
2018-02-12T09:42:08.387Z,1.00
2018-02-12T09:44:35.292Z,1.00
2018-02-12T09:47:02.215Z,0.90
2018-02-12T09:49:29.124Z,0.80
2018-02-12T09:51:56.043Z,0.90
2018-02-12T09:54:22.946Z,1.00
2018-02-12T09:56:49.877Z,1.00
2018-02-12T09:59:16.797Z,0.90
2018-02-12T10:01:43.720Z,1.00
2018-02-12T10:04:10.624Z,0.80
2018-02-12T10:06:37.552Z,0.90
2018-02-12T10:09:04.481Z,0.90
2018-02-12T10:11:32.227Z,1.00
2018-02-12T10:13:59.140Z,1.00
2018-02-12T10:16:26.075Z,0.90
2018-02-12T10:18:52.979Z,1.10
2018-02-12T10:21:20.668Z,1.10
2018-02-12T10:23:47.577Z,1.10
2018-02-12T10:26:14.559Z,1.00
2018-02-12T10:28:41.476Z,0.90
2018-02-12T10:31:08.424Z,1.00
2018-02-12T10:33:36.124Z,1.10
2018-02-12T10:36:03.024Z,1.10
2018-02-12T10:38:30.722Z,1.30
2018-02-12T10:40:57.640Z,1.20
2018-02-12T10:43:25.325Z,1.50
2018-02-12T10:45:52.245Z,1.50
2018-02-12T10:48:19.931Z,1.80
2018-02-12T10:50:46.850Z,1.80
2018-02-12T10:53:14.544Z,1.90
2018-02-12T10:55:41.448Z,1.80
2018-02-12T10:58:08.378Z,1.80
2018-02-12T11:00:35.347Z,1.70
2018-02-12T11:03:03.056Z,1.80
2018-02-12T11:05:29.963Z,1.80
2018-02-12T11:07:57.639Z,1.80
2018-02-12T11:10:24.552Z,1.80
2018-02-12T11:12:51.496Z,1.90
2018-02-12T11:15:18.434Z,1.80
2018-02-12T11:17:46.718Z,1.90
2018-02-12T11:20:14.439Z,2.10
2018-02-12T11:22:41.378Z,2.00
2018-02-12T11:25:09.058Z,2.10
2018-02-12T11:27:36.735Z,2.10
2018-02-12T11:30:03.638Z,2.00
2018-02-12T11:32:30.548Z,2.10
2018-02-12T11:34:57.475Z,2.10
2018-02-12T11:37:24.400Z,2.10
2018-02-12T11:39:51.316Z,2.20
2018-02-12T11:42:18.240Z,2.20
2018-02-12T11:44:45.143Z,2.10
2018-02-12T11:47:12.075Z,2.40
2018-02-12T11:49:38.977Z,2.60
2018-02-12T11:52:05.907Z,2.80
2018-02-12T11:54:32.816Z,3.00
2018-02-12T11:56:59.743Z,3.10
2018-02-12T11:59:26.647Z,3.10
2018-02-12T12:01:53.576Z,3.50
2018-02-12T12:04:21.248Z,3.10
2018-02-12T12:06:48.181Z,3.10
2018-02-12T12:09:15.856Z,3.30
2018-02-12T12:11:42.772Z,3.30
2018-02-12T12:14:09.696Z,3.30
2018-02-12T12:16:36.604Z,3.30
2018-02-12T12:19:03.513Z,3.30
2018-02-12T12:21:30.445Z,3.30
2018-02-12T12:23:57.363Z,3.40
2018-02-12T12:26:24.293Z,3.60
2018-02-12T12:28:51.225Z,3.60
2018-02-12T12:31:18.135Z,3.90
2018-02-12T12:33:45.052Z,3.90
2018-02-12T12:36:11.956Z,3.70
2018-02-12T12:38:38.851Z,3.50
2018-02-12T12:41:05.772Z,3.50
2018-02-12T12:43:32.690Z,3.70
2018-02-12T12:45:59.627Z,3.90
2018-02-12T12:48:26.550Z,4.10
2018-02-12T12:50:54.227Z,4.20
2018-02-12T12:53:21.144Z,4.20
2018-02-12T12:55:48.053Z,4.20
2018-02-12T12:58:14.992Z,4.00
2018-02-12T13:00:41.903Z,3.90
2018-02-12T13:03:08.839Z,3.90
2018-02-12T13:05:36.514Z,3.80
2018-02-12T13:08:03.445Z,3.90
2018-02-12T13:10:30.364Z,3.80
2018-02-12T13:12:57.293Z,3.70
2018-02-12T13:15:24.228Z,3.70
2018-02-12T13:17:51.159Z,3.70
2018-02-12T13:20:18.085Z,3.70
2018-02-12T13:22:45.016Z,3.70
2018-02-12T13:25:11.931Z,3.70
2018-02-12T13:27:38.856Z,3.70
2018-02-12T13:30:05.769Z,3.80
2018-02-12T13:32:32.701Z,3.90
2018-02-12T13:34:59.608Z,3.90
2018-02-12T13:37:26.547Z,3.90
2018-02-12T13:39:53.456Z,4.00
2018-02-12T13:42:20.383Z,4.00
2018-02-12T13:44:47.294Z,4.00
2018-02-12T13:47:14.208Z,3.80
2018-02-12T13:49:41.117Z,3.90
2018-02-12T13:52:08.040Z,3.90
2018-02-12T13:54:34.949Z,4.00
2018-02-12T13:57:01.868Z,4.10
2018-02-12T13:59:28.776Z,3.90
2018-02-12T14:01:55.710Z,3.90
2018-02-12T14:04:22.617Z,4.00
2018-02-12T14:06:49.548Z,3.90
2018-02-12T14:09:16.459Z,3.90
2018-02-12T14:11:44.145Z,3.90
2018-02-12T14:14:11.063Z,3.90
2018-02-12T14:16:38.764Z,3.80
2018-02-12T14:19:05.697Z,3.80
2018-02-12T14:21:32.620Z,3.80
2018-02-12T14:24:00.292Z,3.70
2018-02-12T14:26:27.213Z,3.60
2018-02-12T14:28:54.149Z,3.60
2018-02-12T14:31:21.075Z,3.60
2018-02-12T14:33:47.970Z,3.50
2018-02-12T14:36:14.895Z,3.50
2018-02-12T14:38:42.559Z,3.40
2018-02-12T14:41:10.243Z,3.20
2018-02-12T14:43:37.196Z,3.20
2018-02-12T14:46:04.135Z,3.10
2018-02-12T14:48:31.076Z,3.00
2018-02-12T14:50:57.991Z,2.90
2018-02-12T14:53:24.916Z,2.90
2018-02-12T14:55:51.821Z,2.80
2018-02-12T14:58:18.765Z,2.90
2018-02-12T15:00:45.672Z,3.00
2018-02-12T15:03:13.359Z,3.20
2018-02-12T15:05:40.263Z,3.10
2018-02-12T15:08:07.180Z,3.10
2018-02-12T15:10:34.117Z,3.20
2018-02-12T15:13:01.040Z,3.20
2018-02-12T15:15:27.952Z,3.10
2018-02-12T15:17:55.645Z,3.10
2018-02-12T15:20:22.566Z,3.10
2018-02-12T15:22:50.251Z,2.80
2018-02-12T15:25:17.159Z,2.80
2018-02-12T15:27:44.843Z,3.00
2018-02-12T15:30:11.755Z,3.00
2018-02-12T15:32:38.681Z,3.20
2018-02-12T15:35:05.599Z,3.20
2018-02-12T15:37:32.525Z,2.90
2018-02-12T15:40:00.224Z,2.50
2018-02-12T15:42:27.127Z,2.50
2018-02-12T15:44:54.040Z,2.30
2018-02-12T15:47:20.956Z,2.30
2018-02-12T15:49:47.886Z,2.30
2018-02-12T15:52:14.828Z,2.20
2018-02-12T15:54:41.735Z,2.20
2018-02-12T15:57:09.449Z,2.20
2018-02-12T15:59:36.361Z,2.10
2018-02-12T16:02:03.262Z,2.20
2018-02-12T16:04:31.691Z,2.20
2018-02-12T16:06:58.617Z,2.20
2018-02-12T16:09:25.727Z,2.30
2018-02-12T16:11:53.553Z,2.50
2018-02-12T16:14:20.465Z,2.50
2018-02-12T16:16:48.144Z,2.50
2018-02-12T16:19:15.056Z,2.40
2018-02-12T16:21:41.975Z,2.40
2018-02-12T16:24:08.876Z,2.30
2018-02-12T16:26:35.778Z,2.30
2018-02-12T16:29:02.718Z,2.30
2018-02-12T16:31:29.655Z,2.30
2018-02-12T16:33:56.581Z,2.30
2018-02-12T16:36:23.500Z,2.30
2018-02-12T16:38:51.175Z,2.40
2018-02-12T16:41:18.086Z,2.30
2018-02-12T16:43:45.005Z,2.40
2018-02-12T16:46:11.914Z,2.30
2018-02-12T16:48:38.909Z,2.20
2018-02-12T16:51:06.634Z,2.10
2018-02-12T16:53:33.563Z,2.10
2018-02-12T16:56:00.473Z,2.10
2018-02-12T16:58:28.147Z,2.20
2018-02-12T17:00:55.823Z,2.20
2018-02-12T17:03:22.742Z,2.20
2018-02-12T17:05:50.463Z,2.30
2018-02-12T17:08:17.380Z,2.20
2018-02-12T17:10:44.299Z,2.20
2018-02-12T17:13:11.245Z,2.10
2018-02-12T17:15:38.932Z,2.00
2018-02-12T17:18:05.923Z,2.00
2018-02-12T17:20:32.844Z,1.90
2018-02-12T17:22:59.930Z,2.00
2018-02-12T17:25:27.627Z,1.90
2018-02-12T17:27:54.572Z,1.90
2018-02-12T17:30:21.478Z,2.00
2018-02-12T17:32:48.477Z,1.80
2018-02-12T17:35:15.456Z,1.70
2018-02-12T17:37:42.417Z,1.70
2018-02-12T17:40:09.335Z,1.60
2018-02-12T17:42:36.288Z,1.50
2018-02-12T17:45:03.263Z,1.40
2018-02-12T17:47:31.150Z,1.40
2018-02-12T17:49:58.096Z,1.40
2018-02-12T17:52:29.427Z,1.40
2018-02-12T17:54:56.361Z,1.50
2018-02-12T17:57:23.316Z,1.40
2018-02-12T17:59:52.954Z,1.50
2018-02-12T18:02:19.888Z,1.50
2018-02-12T18:04:46.840Z,1.50
2018-02-12T18:07:13.846Z,1.50
2018-02-12T18:09:40.853Z,1.40
2018-02-12T18:12:08.568Z,1.20
2018-02-12T18:14:35.521Z,1.30
2018-02-12T18:17:02.469Z,1.20
2018-02-12T18:19:29.391Z,1.20
2018-02-12T18:21:56.341Z,1.20
2018-02-12T18:24:23.287Z,1.20
2018-02-12T18:26:50.272Z,1.20
2018-02-12T18:29:17.993Z,1.20
2018-02-12T18:31:45.024Z,1.20
2018-02-12T18:34:11.977Z,1.10
2018-02-12T18:36:38.925Z,1.10
2018-02-12T18:39:05.845Z,1.10
2018-02-12T18:41:34.892Z,1.20
2018-02-12T18:44:01.866Z,1.10
2018-02-12T18:46:28.952Z,1.20
2018-02-12T18:48:55.917Z,1.30
2018-02-12T18:51:22.873Z,1.20
2018-02-12T18:53:49.840Z,1.30
2018-02-12T18:56:16.822Z,1.30
2018-02-12T18:58:43.783Z,1.30
2018-02-12T19:01:10.748Z,1.20
2018-02-12T19:03:38.410Z,1.20
2018-02-12T19:06:05.411Z,1.00
2018-02-12T19:08:32.353Z,1.00
2018-02-12T19:10:59.318Z,1.00
2018-02-12T19:13:26.238Z,1.00
2018-02-12T19:15:53.169Z,0.90
2018-02-12T19:18:20.081Z,1.00
2018-02-12T19:20:47.009Z,0.90
2018-02-12T19:23:13.921Z,0.90
2018-02-12T19:25:40.852Z,0.90
2018-02-12T19:28:07.808Z,0.90
2018-02-12T19:30:34.785Z,0.90
2018-02-12T19:33:01.692Z,0.80
2018-02-12T19:35:28.632Z,0.90
2018-02-12T19:37:55.589Z,1.00
2018-02-12T19:40:22.537Z,0.90
2018-02-12T19:42:49.449Z,0.90
2018-02-12T19:45:17.158Z,0.90
2018-02-12T19:47:44.083Z,0.80
2018-02-12T19:50:11.944Z,0.90
2018-02-12T19:52:38.860Z,0.90
2018-02-12T19:55:06.595Z,0.90
2018-02-12T19:57:34.442Z,0.90
2018-02-12T20:00:01.388Z,0.90
2018-02-12T20:02:29.369Z,0.90
2018-02-12T20:04:56.318Z,0.90
2018-02-12T20:07:23.268Z,0.90
2018-02-12T20:09:50.173Z,0.80
2018-02-12T20:12:17.127Z,0.80
2018-02-12T20:14:44.036Z,0.90
2018-02-12T20:17:11.736Z,0.80
2018-02-12T20:19:38.684Z,0.80
2018-02-12T20:22:05.596Z,0.80
2018-02-12T20:24:32.536Z,0.70
2018-02-12T20:26:59.456Z,0.70
2018-02-12T20:29:26.420Z,0.70
2018-02-12T20:31:53.339Z,0.70
2018-02-12T20:34:20.285Z,0.70
2018-02-12T20:36:49.404Z,0.70
2018-02-12T20:39:16.206Z,0.60
2018-02-12T20:41:44.056Z,0.60
2018-02-12T20:44:10.985Z,0.60
2018-02-12T20:46:37.913Z,0.60
2018-02-12T20:49:04.848Z,0.60
2018-02-12T20:51:31.772Z,0.60
2018-02-12T20:53:58.699Z,0.50
2018-02-12T20:56:25.621Z,0.40
2018-02-12T20:58:52.554Z,0.60
2018-02-12T21:01:19.464Z,0.60
2018-02-12T21:03:47.185Z,0.50
2018-02-12T21:06:16.013Z,0.50
2018-02-12T21:08:42.970Z,0.50
2018-02-12T21:11:14.221Z,0.80
2018-02-12T21:13:41.167Z,0.70
2018-02-12T21:16:08.087Z,0.80
2018-02-12T21:18:35.798Z,0.80
2018-02-12T21:21:02.749Z,0.90
2018-02-12T21:23:30.688Z,0.90
2018-02-12T21:25:59.569Z,0.80
2018-02-12T21:28:26.513Z,0.80
2018-02-12T21:30:53.449Z,0.90
2018-02-12T21:33:21.157Z,0.80
2018-02-12T21:35:48.073Z,0.90
2018-02-12T21:38:15.000Z,0.70
2018-02-12T21:40:42.671Z,0.60
2018-02-12T21:43:09.660Z,0.60
2018-02-12T21:45:36.554Z,0.60
2018-02-12T21:48:03.461Z,0.70
2018-02-12T21:50:30.356Z,0.90
2018-02-12T21:52:57.293Z,0.90
2018-02-12T21:55:24.213Z,0.90
2018-02-12T21:57:51.147Z,0.90
2018-02-12T22:00:18.053Z,1.00
2018-02-12T22:02:46.919Z,1.00
2018-02-12T22:05:14.768Z,1.00
2018-02-12T22:07:42.459Z,1.00
2018-02-12T22:10:09.364Z,1.00
2018-02-12T22:12:37.060Z,0.80
2018-02-12T22:15:04.922Z,0.80
2018-02-12T22:17:31.851Z,0.80
2018-02-12T22:19:59.527Z,0.80
2018-02-12T22:22:26.456Z,0.80
2018-02-12T22:24:54.128Z,1.00
2018-02-12T22:27:21.816Z,1.00
2018-02-12T22:29:48.745Z,0.90
2018-02-12T22:32:15.668Z,0.90
2018-02-12T22:34:44.354Z,1.00
2018-02-12T22:37:18.033Z,1.10
2018-02-12T22:39:44.936Z,1.00
2018-02-12T22:42:11.866Z,1.00
2018-02-12T22:44:38.772Z,1.00
2018-02-12T22:47:06.681Z,1.20
2018-02-12T22:49:33.600Z,1.30
2018-02-12T22:52:01.283Z,1.40
2018-02-12T22:54:29.144Z,1.40
2018-02-12T22:56:56.056Z,1.40
2018-02-12T22:59:23.780Z,1.30
2018-02-12T23:01:50.685Z,1.40
2018-02-12T23:04:17.604Z,1.30
2018-02-12T23:06:45.332Z,1.20
2018-02-12T23:09:13.053Z,1.20
2018-02-12T23:11:39.983Z,1.20
2018-02-12T23:14:06.901Z,1.20
2018-02-12T23:16:33.809Z,1.30
2018-02-12T23:19:00.736Z,1.30
2018-02-12T23:21:27.651Z,1.30
2018-02-12T23:23:55.340Z,1.30
2018-02-12T23:26:22.255Z,1.30
2018-02-12T23:28:49.940Z,1.40
2018-02-12T23:31:16.851Z,1.30
2018-02-12T23:33:44.188Z,1.30
2018-02-12T23:36:11.093Z,1.40
2018-02-12T23:38:38.012Z,1.50
2018-02-12T23:41:05.700Z,1.40
2018-02-12T23:43:32.638Z,1.40
2018-02-12T23:45:59.553Z,1.40
2018-02-12T23:48:27.240Z,1.30
2018-02-12T23:50:54.152Z,1.30
2018-02-12T23:53:21.077Z,1.30
2018-02-12T23:55:48.007Z,1.20
2018-02-12T23:58:14.931Z,1.20
